createdAt,value
2022-08-25T04:02:27.969Z,100684.95
2022-08-25T04:04:56.949Z,100693.20
2022-08-25T04:07:27.026Z,100694.38
2022-08-25T04:09:58.858Z,100681.79
2022-08-25T04:12:27.184Z,100660.90
2022-08-25T04:14:56.399Z,100650.73
2022-08-25T04:23:06.041Z,100638.91
2022-08-25T04:25:35.445Z,100645.81
2022-08-25T04:28:04.686Z,100656.64
2022-08-25T04:30:33.413Z,100665.95
2022-08-25T04:33:03.966Z,100654.45
2022-08-25T04:35:34.813Z,100651.41
2022-08-25T04:38:03.795Z,100653.73
2022-08-25T04:40:32.165Z,100656.34
2022-08-25T04:43:01.113Z,100651.27
2022-08-25T04:45:30.368Z,100646.33
2022-08-25T04:48:01.846Z,100652.60
2022-08-25T04:50:31.237Z,100650.20
2022-08-25T04:53:02.294Z,100645.91
2022-08-25T04:55:33.778Z,100641.48
2022-08-25T04:58:03.185Z,100635.40
2022-08-25T05:00:32.009Z,100631.33
2022-08-25T05:03:01.080Z,100634.87
2022-08-25T05:05:31.532Z,100641.48
2022-08-25T05:08:04.257Z,100641.52
2022-08-25T05:10:35.055Z,100640.86
2022-08-25T05:13:04.875Z,100638.51
2022-08-25T05:15:52.741Z,100634.94
2022-08-25T05:18:23.930Z,100628.62
2022-08-25T05:20:54.694Z,100625.16
2022-08-25T05:23:27.108Z,100626.63
2022-08-25T05:25:56.267Z,100623.14
2022-08-25T05:28:25.380Z,100620.41
2022-08-25T05:30:59.978Z,100621.62
2022-08-25T05:33:32.711Z,100620.41
2022-08-25T05:36:20.498Z,100619.52
2022-08-25T05:38:50.031Z,100619.34
2022-08-25T05:41:22.023Z,100623.14
2022-08-25T05:43:51.281Z,100619.58
2022-08-25T05:46:22.806Z,100619.20
2022-08-25T05:48:51.352Z,100615.06
2022-08-25T05:51:21.024Z,100616.11
2022-08-25T05:53:52.524Z,100612.15
2022-08-25T05:56:22.114Z,100609.67
2022-08-25T05:58:51.023Z,100614.77
2022-08-25T06:01:43.344Z,100615.00
2022-08-25T06:04:16.340Z,100616.17
2022-08-25T06:06:45.585Z,100619.84
2022-08-25T06:09:14.436Z,100618.20
2022-08-25T06:11:43.483Z,100624.70
2022-08-25T06:14:37.731Z,100637.70
2022-08-25T06:17:35.714Z,100655.94
2022-08-25T06:20:06.651Z,100683.94
2022-08-25T06:22:38.504Z,100689.44
2022-08-25T06:29:36.461Z,100671.27
2022-08-25T06:32:07.336Z,100686.21
2022-08-25T06:34:36.885Z,100688.02
2022-08-25T06:37:10.299Z,100677.02
2022-08-25T06:39:40.605Z,100664.73
2022-08-25T06:42:10.652Z,100669.90
2022-08-25T06:44:40.210Z,100675.23
2022-08-25T06:47:11.467Z,100676.14
2022-08-25T06:49:40.009Z,100673.52
2022-08-25T06:52:09.455Z,100681.41
2022-08-25T06:54:39.073Z,100679.29
2022-08-25T06:57:08.996Z,100672.59
2022-08-25T06:59:39.093Z,100668.47
2022-08-25T07:02:13.271Z,100673.52
2022-08-25T07:04:54.229Z,100675.02
2022-08-25T07:07:23.671Z,100674.66
2022-08-25T07:09:52.747Z,100674.61
2022-08-25T07:12:22.580Z,100675.27
2022-08-25T07:15:10.158Z,100680.34
2022-08-25T07:17:44.647Z,100674.80
2022-08-25T07:20:14.775Z,100672.32
2022-08-25T07:22:44.153Z,100677.05
2022-08-25T07:25:12.867Z,100679.67
2022-08-25T07:27:42.393Z,100672.66
2022-08-25T07:30:11.391Z,100679.81
2022-08-25T07:32:42.079Z,100679.45
2022-08-25T07:35:20.138Z,100684.27
2022-08-25T07:37:58.778Z,100685.95
2022-08-25T07:40:34.140Z,100685.64
2022-08-25T07:43:07.108Z,100683.89
2022-08-25T07:45:46.821Z,100680.92
2022-08-25T07:48:22.809Z,100682.26
2022-08-25T07:50:52.809Z,100679.73
2022-08-25T07:53:22.796Z,100674.40
2022-08-25T07:55:51.271Z,100672.42
2022-08-25T07:58:22.708Z,100671.95
2022-08-25T08:00:53.514Z,100679.02
2022-08-25T08:03:44.735Z,100682.27
2022-08-25T08:06:14.305Z,100678.70
2022-08-25T08:08:45.883Z,100679.20
2022-08-25T08:11:20.606Z,100683.19
2022-08-25T08:13:50.887Z,100686.45
2022-08-25T08:16:23.439Z,100688.57
2022-08-25T08:18:53.922Z,100681.09
2022-08-25T08:21:29.956Z,100684.74
2022-08-25T08:23:59.691Z,100683.11
2022-08-25T08:26:48.194Z,100680.71
2022-08-25T08:29:20.827Z,100679.44
2022-08-25T08:31:52.429Z,100684.28
2022-08-25T08:34:24.903Z,100685.72
2022-08-25T08:36:55.239Z,100682.77
2022-08-25T08:39:24.994Z,100681.75
2022-08-25T08:42:22.583Z,100684.03
2022-08-25T08:44:57.004Z,100678.83
2022-08-25T08:48:10.730Z,100672.71
2022-08-25T08:51:16.184Z,100668.88
2022-08-25T08:53:57.373Z,100668.20
2022-08-25T08:56:30.964Z,100668.52
2022-08-25T08:59:07.146Z,100667.24
2022-08-25T09:02:02.381Z,100669.73
2022-08-25T09:04:50.914Z,100670.96
2022-08-25T09:07:31.546Z,100667.63
2022-08-25T09:10:01.580Z,100664.33
2022-08-25T09:13:02.872Z,100660.84
2022-08-25T09:16:04.970Z,100658.85
2022-08-25T09:19:08.189Z,100659.10
2022-08-25T09:21:50.444Z,100653.11
2022-08-25T09:24:53.158Z,100645.40
2022-08-25T09:27:41.926Z,100646.61
2022-08-25T09:30:24.910Z,100649.70
2022-08-25T09:33:05.315Z,100651.55
2022-08-25T09:35:40.461Z,100650.92
2022-08-25T09:38:12.287Z,100653.33
2022-08-25T09:40:48.168Z,100657.27
2022-08-25T09:43:44.896Z,100659.91
2022-08-25T09:46:14.175Z,100652.45
2022-08-25T09:48:46.086Z,100646.52
2022-08-25T09:51:21.151Z,100642.55
2022-08-25T09:53:59.197Z,100641.80
2022-08-25T09:56:32.348Z,100644.69
2022-08-25T09:59:34.321Z,100638.17
2022-08-25T10:02:04.505Z,100637.77
2022-08-25T10:04:40.046Z,100640.51
2022-08-25T10:07:39.528Z,100633.95
2022-08-25T10:10:25.761Z,100631.46
2022-08-25T10:12:55.613Z,100627.55
2022-08-25T10:15:29.955Z,100627.19
2022-08-25T10:18:26.368Z,100619.30
2022-08-25T10:21:09.525Z,100620.55
2022-08-25T10:23:45.152Z,100614.36
2022-08-25T10:26:26.766Z,100609.59
2022-08-25T10:29:02.425Z,100604.42
2022-08-25T10:31:38.840Z,100600.80
2022-08-25T10:34:22.301Z,100599.20
2022-08-25T10:37:34.013Z,100601.02
2022-08-25T10:40:33.003Z,100599.38
2022-08-25T10:43:08.917Z,100599.52
2022-08-25T10:45:51.648Z,100593.70
2022-08-25T10:48:27.092Z,100592.11
2022-08-25T10:51:01.897Z,100587.19
2022-08-25T10:53:56.973Z,100584.14
2022-08-25T10:56:40.949Z,100582.98
2022-08-25T10:59:13.985Z,100577.63
2022-08-25T11:02:15.836Z,100574.06
2022-08-25T11:04:56.468Z,100574.02
2022-08-25T11:07:35.536Z,100571.52
2022-08-25T11:10:23.223Z,100570.55
2022-08-25T11:13:08.360Z,100566.89
2022-08-25T11:16:19.568Z,100562.35
2022-08-25T11:18:56.507Z,100559.04
2022-08-25T11:21:51.925Z,100556.61
2022-08-25T11:24:24.604Z,100555.41
2022-08-25T11:27:13.851Z,100553.64
2022-08-25T11:29:49.460Z,100560.21
2022-08-25T11:32:21.465Z,100556.18
2022-08-25T11:34:51.834Z,100555.58
2022-08-25T11:37:26.716Z,100549.34
2022-08-25T11:40:14.276Z,100551.23
2022-08-25T11:43:14.106Z,100547.02
2022-08-25T11:45:54.560Z,100543.38
2022-08-25T11:49:21.802Z,100538.59
2022-08-25T11:51:52.618Z,100540.52
2022-08-25T11:54:28.945Z,100536.39
2022-08-25T11:57:18.528Z,100535.48
2022-08-25T11:59:53.774Z,100532.54
2022-08-25T12:02:49.305Z,100529.45
2022-08-25T12:05:18.795Z,100526.38
2022-08-25T12:08:08.929Z,100522.89
2022-08-25T12:11:11.492Z,100521.56
2022-08-25T12:13:52.466Z,100521.41
2022-08-25T12:16:41.102Z,100520.13
2022-08-25T12:19:37.982Z,100523.89
2022-08-25T12:22:10.839Z,100525.63
2022-08-25T12:24:48.262Z,100520.27
2022-08-25T12:27:55.971Z,100520.33
2022-08-25T12:30:39.456Z,100518.10
2022-08-25T12:33:16.696Z,100513.34
2022-08-25T12:35:59.367Z,100516.02
2022-08-25T12:38:50.947Z,100511.63
2022-08-25T12:41:24.363Z,100508.63
2022-08-25T12:44:10.276Z,100509.39
2022-08-25T12:46:45.000Z,100507.61
2022-08-25T12:49:39.699Z,100502.47
2022-08-25T12:52:17.143Z,100501.02
2022-08-25T12:54:50.024Z,100499.58
2022-08-25T12:57:53.235Z,100499.20
2022-08-25T13:03:27.036Z,100496.30
2022-08-25T13:06:08.792Z,100495.95
2022-08-25T13:09:02.514Z,100492.14
2022-08-25T13:12:06.419Z,100490.52
2022-08-25T13:14:40.625Z,100490.40
2022-08-25T13:17:09.786Z,100487.52
2022-08-25T13:19:39.182Z,100489.10
2022-08-25T13:22:16.369Z,100487.73
2022-08-25T13:24:51.316Z,100485.23
2022-08-25T13:27:29.009Z,100483.13
2022-08-25T13:30:03.812Z,100479.96
2022-08-25T13:32:37.085Z,100478.78
2022-08-25T13:35:32.340Z,100473.58
2022-08-25T13:38:28.481Z,100472.47
2022-08-25T13:41:09.392Z,100473.95
2022-08-25T13:43:40.274Z,100472.18
2022-08-25T13:46:10.698Z,100471.70
2022-08-25T13:48:49.634Z,100465.47
2022-08-25T13:51:31.335Z,100467.35
2022-08-25T13:54:07.238Z,100462.77
2022-08-25T13:56:40.936Z,100458.22
2022-08-25T13:59:33.940Z,100454.28
2022-08-25T14:02:03.392Z,100449.08
2022-08-25T14:04:50.853Z,100456.80
2022-08-25T14:07:21.873Z,100451.61
2022-08-25T14:09:58.807Z,100452.16
2022-08-25T14:12:45.171Z,100449.73
2022-08-25T14:15:22.502Z,100449.30
2022-08-25T14:18:04.775Z,100450.62
2022-08-25T14:20:36.663Z,100448.04
2022-08-25T14:23:10.183Z,100448.91
2022-08-25T14:25:42.420Z,100451.52
2022-08-25T14:28:15.421Z,100447.19
2022-08-25T14:30:51.791Z,100444.98
2022-08-25T14:33:25.827Z,100445.97
2022-08-25T14:35:56.004Z,100444.56
2022-08-25T14:38:26.004Z,100441.58
2022-08-25T14:40:55.400Z,100441.40
2022-08-25T14:43:31.281Z,100436.58
2022-08-25T14:46:10.208Z,100433.89
2022-08-25T14:48:46.982Z,100435.66
2022-08-25T14:51:18.523Z,100433.61
2022-08-25T14:53:48.124Z,100428.63
2022-08-25T14:56:17.651Z,100425.34
2022-08-25T14:58:51.164Z,100423.35
2022-08-25T15:01:29.289Z,100424.70
2022-08-25T15:04:10.733Z,100424.24
2022-08-25T15:06:44.352Z,100420.20
2022-08-25T15:09:17.413Z,100414.56
2022-08-25T15:11:54.534Z,100416.21
2022-08-25T15:14:29.187Z,100418.92
2022-08-25T15:17:04.013Z,100416.48
2022-08-25T15:19:34.796Z,100420.20
2022-08-25T15:22:03.771Z,100422.28
2022-08-25T15:24:38.392Z,100419.73
2022-08-25T15:27:15.703Z,100422.11
2022-08-25T15:29:51.582Z,100419.67
2022-08-25T15:32:21.663Z,100423.72
2022-08-25T15:34:54.961Z,100421.33
2022-08-25T15:37:27.680Z,100419.02
2022-08-25T15:40:15.524Z,100416.96
2022-08-25T15:43:03.647Z,100418.45
2022-08-25T15:45:52.517Z,100419.00
2022-08-25T15:48:41.716Z,100420.05
2022-08-25T15:51:31.815Z,100414.14
2022-08-25T15:54:01.526Z,100414.14
2022-08-25T15:56:30.518Z,100411.86
2022-08-25T15:59:08.630Z,100412.91
2022-08-25T16:01:39.693Z,100409.09
2022-08-25T16:04:10.529Z,100409.27
2022-08-25T16:10:18.033Z,100403.86
2022-08-25T16:13:16.057Z,100400.55
2022-08-25T16:16:19.665Z,100392.73
2022-08-25T16:20:23.566Z,100390.15
2022-08-25T16:22:52.787Z,100386.17
2022-08-25T16:25:43.488Z,100382.95
2022-08-25T16:29:07.311Z,100378.70
2022-08-25T16:32:02.360Z,100376.23
2022-08-25T16:35:36.422Z,100377.94
2022-08-25T16:38:31.797Z,100374.89
2022-08-25T16:41:30.715Z,100378.42
2022-08-25T16:44:53.977Z,100380.32
2022-08-25T16:47:29.028Z,100381.04
2022-08-25T16:50:06.955Z,100383.50
2022-08-25T16:52:58.252Z,100382.65
2022-08-25T16:55:39.280Z,100376.02
2022-08-25T16:58:18.217Z,100377.09
2022-08-25T17:00:48.542Z,100379.68
2022-08-25T17:03:17.912Z,100382.23
2022-08-25T17:05:46.188Z,100384.34
2022-08-25T17:08:30.549Z,100385.00
2022-08-25T17:11:15.593Z,100388.64
2022-08-25T17:13:47.505Z,100383.63
2022-08-25T17:16:21.426Z,100386.05
2022-08-25T17:18:50.344Z,100389.09
2022-08-25T17:21:24.375Z,100389.41
2022-08-25T17:23:57.716Z,100389.39
2022-08-25T17:26:28.975Z,100387.11
2022-08-25T17:28:59.416Z,100384.48
2022-08-25T17:31:30.749Z,100383.27
2022-08-25T17:34:00.594Z,100385.96
2022-08-25T17:36:29.186Z,100383.85
2022-08-25T17:38:59.026Z,100387.27
2022-08-25T17:41:32.098Z,100392.38
2022-08-25T17:44:06.367Z,100394.52
2022-08-25T17:46:35.096Z,100395.48
2022-08-25T17:49:05.509Z,100393.50
2022-08-25T17:51:34.078Z,100393.48
2022-08-25T17:54:04.299Z,100397.38
2022-08-25T17:56:33.938Z,100399.11
2022-08-25T17:59:02.938Z,100398.98
2022-08-25T18:01:34.639Z,100401.82
2022-08-25T18:04:03.724Z,100401.95
2022-08-25T18:06:34.331Z,100400.75
2022-08-25T18:09:05.317Z,100400.70
2022-08-25T18:11:35.290Z,100403.30
2022-08-25T18:14:06.874Z,100404.54
2022-08-25T18:16:42.226Z,100407.72
2022-08-25T18:19:13.063Z,100405.70
2022-08-25T18:21:43.919Z,100404.86
2022-08-25T18:24:13.297Z,100404.71
2022-08-25T18:26:43.209Z,100405.14
2022-08-25T18:29:13.456Z,100404.86
2022-08-25T18:31:42.831Z,100408.98
2022-08-25T18:34:13.614Z,100407.12
2022-08-25T18:36:42.407Z,100405.50
2022-08-25T18:39:34.745Z,100405.02
2022-08-25T18:42:06.567Z,100407.05
2022-08-25T18:44:36.861Z,100407.52
2022-08-25T18:47:07.541Z,100407.31
2022-08-25T18:49:37.648Z,100409.22
2022-08-25T18:52:07.521Z,100405.10
2022-08-25T18:54:36.236Z,100405.44
2022-08-25T18:57:08.243Z,100407.48
2022-08-25T18:59:37.944Z,100410.32
2022-08-25T19:02:08.199Z,100408.92
2022-08-25T19:04:37.867Z,100407.70
2022-08-25T19:07:09.726Z,100411.32
2022-08-25T19:09:39.177Z,100412.52
2022-08-25T19:12:11.629Z,100412.29
2022-08-25T19:14:52.509Z,100419.55
2022-08-25T19:17:21.366Z,100417.98
2022-08-25T19:19:53.838Z,100419.13
2022-08-25T19:22:40.744Z,100419.60
2022-08-25T19:25:11.208Z,100419.09
2022-08-25T19:27:41.346Z,100424.15
2022-08-25T19:30:12.117Z,100421.02
2022-08-25T19:32:42.871Z,100421.30
2022-08-25T19:35:19.843Z,100420.23
2022-08-25T19:37:50.275Z,100417.67
2022-08-25T19:40:21.884Z,100420.05
2022-08-25T19:42:53.907Z,100417.80
2022-08-25T19:45:24.306Z,100417.86
2022-08-25T19:47:53.748Z,100412.69
2022-08-25T19:50:23.940Z,100406.91
2022-08-25T19:52:52.429Z,100407.51
2022-08-25T19:55:22.053Z,100408.31
2022-08-25T19:58:23.813Z,100408.84
2022-08-25T20:00:53.122Z,100405.54
2022-08-25T20:03:22.730Z,100405.55
2022-08-25T20:05:52.479Z,100404.39
2022-08-25T20:08:29.806Z,100406.02
2022-08-25T20:10:59.221Z,100405.34
2022-08-25T20:13:27.879Z,100409.05
2022-08-25T20:15:57.687Z,100410.98
2022-08-25T20:18:28.399Z,100408.25
2022-08-25T20:21:00.845Z,100408.45
2022-08-25T20:23:47.830Z,100408.09
2022-08-25T20:26:17.477Z,100405.91
2022-08-25T20:28:47.236Z,100404.99
2022-08-25T20:31:15.896Z,100404.09
2022-08-25T20:33:44.717Z,100407.27
2022-08-25T20:36:16.092Z,100406.45
2022-08-25T20:38:45.158Z,100416.02
2022-08-25T20:41:14.515Z,100414.34
2022-08-25T20:43:43.036Z,100415.44
2022-08-25T20:46:13.121Z,100419.09
2022-08-25T20:48:41.470Z,100416.53
2022-08-25T20:51:11.937Z,100421.76
2022-08-25T20:53:43.041Z,100420.59
2022-08-25T20:56:14.366Z,100422.31
2022-08-25T20:58:43.556Z,100424.23
2022-08-25T21:01:23.203Z,100420.42
2022-08-25T21:03:52.710Z,100416.08
2022-08-25T21:06:21.905Z,100417.49
2022-08-25T21:08:51.477Z,100416.62
2022-08-25T21:11:22.268Z,100412.06
2022-08-25T21:13:52.476Z,100409.70
2022-08-25T21:16:21.698Z,100412.09
2022-08-25T21:18:52.393Z,100410.91
2022-08-25T21:21:21.017Z,100410.92
2022-08-25T21:23:51.284Z,100409.34
2022-08-25T21:26:25.276Z,100409.91
2022-08-25T21:28:57.683Z,100410.27
2022-08-25T21:31:27.702Z,100408.15
2022-08-25T21:33:58.331Z,100409.77
2022-08-25T21:36:29.706Z,100408.92
2022-08-25T21:39:00.933Z,100409.06
2022-08-25T21:41:33.797Z,100411.30
2022-08-25T21:44:03.142Z,100408.70
2022-08-25T21:46:34.200Z,100407.29
2022-08-25T21:49:06.136Z,100412.70
2022-08-25T21:51:41.247Z,100408.27
2022-08-25T21:54:13.537Z,100407.55
2022-08-25T21:56:56.180Z,100410.02
2022-08-25T21:59:28.219Z,100411.63
2022-08-25T22:02:00.186Z,100411.85
2022-08-25T22:04:30.253Z,100410.15
2022-08-25T22:07:02.515Z,100406.56
2022-08-25T22:09:31.744Z,100410.57
2022-08-25T22:12:01.206Z,100410.73
2022-08-25T22:14:30.386Z,100409.73
2022-08-25T22:16:59.373Z,100406.90
2022-08-25T22:19:28.795Z,100405.73
2022-08-25T22:21:58.280Z,100404.30
2022-08-25T22:24:30.221Z,100406.73
2022-08-25T22:26:59.206Z,100405.52
2022-08-25T22:29:30.626Z,100403.00
2022-08-25T22:32:02.189Z,100400.73
2022-08-25T22:34:34.823Z,100393.60
2022-08-25T22:37:10.239Z,100392.42
2022-08-25T22:39:41.788Z,100392.40
2022-08-25T22:42:10.808Z,100394.27
2022-08-25T22:44:40.905Z,100392.61
2022-08-25T22:47:11.904Z,100391.79
2022-08-25T22:49:40.951Z,100390.77
2022-08-25T22:52:11.603Z,100382.46
2022-08-25T22:54:42.139Z,100382.52
2022-08-25T22:57:12.470Z,100380.77
2022-08-25T22:59:41.309Z,100379.10
